createdAt,value
2019-02-10T00:00:49.551Z,16.53
2019-02-10T00:03:18.210Z,19.17
2019-02-10T00:05:46.837Z,22.93
2019-02-10T00:08:15.439Z,19.13
2019-02-10T00:10:44.101Z,22.30
2019-02-10T00:13:27.115Z,17.90
2019-02-10T00:15:57.642Z,22.30
2019-02-10T00:18:26.340Z,23.60
2019-02-10T00:20:55.074Z,16.93
2019-02-10T00:23:23.709Z,18.40
2019-02-10T00:25:52.410Z,20.30
2019-02-10T00:28:21.077Z,17.37
2019-02-10T00:30:49.793Z,15.93
2019-02-10T00:33:18.600Z,23.17
2019-02-10T00:35:47.311Z,15.67
2019-02-10T00:38:16.225Z,23.53
2019-02-10T00:40:45.074Z,24.23
2019-02-10T00:43:13.940Z,24.77
2019-02-10T00:45:42.658Z,18.17
2019-02-10T00:48:11.322Z,17.63
2019-02-10T00:50:40.053Z,19.00
2019-02-10T00:53:08.761Z,26.50
2019-02-10T00:55:37.371Z,31.07
2019-02-10T00:58:06.169Z,40.07
2019-02-10T01:00:34.915Z,33.80
2019-02-10T01:03:03.680Z,30.60
2019-02-10T01:05:32.433Z,35.20
2019-02-10T01:08:01.145Z,30.00
2019-02-10T01:10:29.958Z,41.23
2019-02-10T01:12:58.710Z,28.73
2019-02-10T01:15:27.437Z,19.10
2019-02-10T01:17:56.155Z,21.20
2019-02-10T01:20:24.868Z,20.10
2019-02-10T01:22:53.618Z,20.07
2019-02-10T01:25:22.358Z,21.27
2019-02-10T01:27:51.091Z,25.40
2019-02-10T01:30:19.872Z,19.20
2019-02-10T01:32:48.594Z,22.27
2019-02-10T01:35:17.378Z,21.93
2019-02-10T01:37:46.041Z,15.47
2019-02-10T01:40:14.755Z,19.10
2019-02-10T01:42:43.406Z,21.50
2019-02-10T01:45:13.009Z,15.27
2019-02-10T01:47:41.715Z,21.73
2019-02-10T01:50:11.665Z,20.17
2019-02-10T01:52:40.361Z,20.07
2019-02-10T01:55:13.551Z,12.43
2019-02-10T01:57:42.350Z,21.63
2019-02-10T02:00:14.023Z,16.73
2019-02-10T02:02:42.715Z,14.93
2019-02-10T02:05:11.620Z,26.83
2019-02-10T02:07:40.251Z,24.10
2019-02-10T02:10:11.551Z,18.63
2019-02-10T02:12:40.257Z,17.43
2019-02-10T02:15:11.656Z,15.60
2019-02-10T02:17:41.388Z,20.47
2019-02-10T02:20:11.911Z,16.87
2019-02-10T02:22:40.547Z,22.23
2019-02-10T02:25:12.842Z,17.47
2019-02-10T02:27:41.528Z,31.80
2019-02-10T02:30:12.458Z,24.20
2019-02-10T02:32:41.161Z,18.03
2019-02-10T02:35:09.852Z,22.00
2019-02-10T02:37:38.447Z,18.30
2019-02-10T02:40:11.824Z,16.53
2019-02-10T02:42:40.503Z,16.20
2019-02-10T02:45:12.688Z,17.77
2019-02-10T02:47:41.403Z,17.20
2019-02-10T02:50:11.695Z,19.27
2019-02-10T02:52:40.321Z,17.30
2019-02-10T02:55:10.033Z,18.20
2019-02-10T02:57:38.603Z,18.60
2019-02-10T03:00:09.302Z,26.10
2019-02-10T03:02:37.925Z,15.97
2019-02-10T03:05:09.158Z,21.80
2019-02-10T03:07:37.779Z,23.77
2019-02-10T03:10:08.713Z,17.43
2019-02-10T03:12:38.611Z,20.73
2019-02-10T03:15:09.139Z,16.43
2019-02-10T03:17:37.834Z,15.43
2019-02-10T03:20:09.936Z,17.77
2019-02-10T03:22:38.598Z,19.73
2019-02-10T03:25:09.930Z,16.93
2019-02-10T03:27:41.784Z,16.30
2019-02-10T03:30:11.897Z,13.77
2019-02-10T03:32:41.014Z,17.57
2019-02-10T03:35:10.140Z,21.23
2019-02-10T03:37:38.756Z,12.80
2019-02-10T03:40:11.332Z,17.17
2019-02-10T03:42:39.890Z,13.93
2019-02-10T03:45:09.718Z,13.37
2019-02-10T03:47:38.327Z,15.70
2019-02-10T03:50:08.912Z,13.37
2019-02-10T03:52:37.573Z,19.17
2019-02-10T03:55:08.550Z,11.23
2019-02-10T03:57:37.169Z,12.93
2019-02-10T04:00:11.441Z,16.63
2019-02-10T04:02:40.146Z,15.80
2019-02-10T04:05:12.327Z,17.37
2019-02-10T04:07:40.913Z,13.93
2019-02-10T04:10:10.692Z,16.83
2019-02-10T04:12:39.417Z,15.83
2019-02-10T04:15:08.311Z,13.80
2019-02-10T04:17:36.934Z,18.30
2019-02-10T04:20:07.177Z,15.27
2019-02-10T04:22:35.773Z,19.40
2019-02-10T04:25:04.997Z,21.37
2019-02-10T04:27:33.627Z,17.53
2019-02-10T04:30:02.272Z,18.20
2019-02-10T04:32:30.856Z,19.93
2019-02-10T04:34:59.509Z,15.87
2019-02-10T04:37:28.134Z,11.43
2019-02-10T04:39:56.765Z,19.70
2019-02-10T04:42:25.348Z,12.90
2019-02-10T04:44:53.925Z,14.40
2019-02-10T04:47:22.488Z,21.67
2019-02-10T04:49:51.045Z,14.07
2019-02-10T04:52:19.701Z,14.37
2019-02-10T04:54:48.275Z,15.20
2019-02-10T04:57:16.997Z,16.47
2019-02-10T04:59:45.634Z,16.40
2019-02-10T05:02:14.233Z,11.03
2019-02-10T05:04:42.786Z,11.60
2019-02-10T05:07:11.414Z,17.50
2019-02-10T05:09:40.087Z,13.13
2019-02-10T05:12:08.977Z,12.13
2019-02-10T05:14:37.630Z,15.73
2019-02-10T05:17:06.654Z,14.07
2019-02-10T05:19:35.245Z,14.37
2019-02-10T05:22:03.878Z,10.43
2019-02-10T05:24:32.435Z,15.70
2019-02-10T05:27:01.168Z,12.70
2019-02-10T05:29:29.706Z,12.17
2019-02-10T05:31:58.295Z,11.33
2019-02-10T05:34:26.845Z,10.67
2019-02-10T05:36:55.502Z,10.47
2019-02-10T05:39:24.059Z,9.53
2019-02-10T05:41:52.611Z,13.27
2019-02-10T05:44:21.273Z,9.30
2019-02-10T05:46:49.840Z,10.43
2019-02-10T05:49:18.422Z,10.33
2019-02-10T05:51:46.965Z,9.57
2019-02-10T05:54:15.550Z,11.33
2019-02-10T05:56:44.168Z,7.13
2019-02-10T05:59:12.756Z,10.17
2019-02-10T06:02:20.824Z,12.50
2019-02-10T06:04:49.405Z,9.57
2019-02-10T06:07:18.025Z,9.67
2019-02-10T06:09:46.624Z,8.67
2019-02-10T06:12:15.169Z,8.90
2019-02-10T06:14:43.718Z,9.40
2019-02-10T06:17:12.375Z,7.20
2019-02-10T06:19:40.938Z,9.93
2019-02-10T06:22:09.599Z,11.33
2019-02-10T06:24:38.166Z,9.37
2019-02-10T06:27:06.752Z,8.47
2019-02-10T06:29:35.316Z,9.03
2019-02-10T06:32:03.954Z,11.20
2019-02-10T06:34:32.673Z,9.03
2019-02-10T06:37:01.298Z,7.13
2019-02-10T06:39:29.889Z,8.63
2019-02-10T06:41:58.515Z,7.13
2019-02-10T06:44:27.148Z,10.13
2019-02-10T06:46:55.734Z,6.77
2019-02-10T06:49:24.321Z,7.40
2019-02-10T06:51:52.874Z,6.77
2019-02-10T06:54:21.456Z,10.23
2019-02-10T06:56:50.091Z,8.00
2019-02-10T06:59:20.329Z,8.00
2019-02-10T07:01:50.512Z,7.47
2019-02-10T07:04:19.282Z,7.30
2019-02-10T07:06:47.828Z,9.23
2019-02-10T07:09:16.394Z,7.23
2019-02-10T07:11:45.061Z,8.83
2019-02-10T07:14:22.665Z,7.60
2019-02-10T07:16:56.961Z,5.93
2019-02-10T07:20:00.289Z,6.57
2019-02-10T07:22:34.929Z,9.80
2019-02-10T07:25:18.589Z,7.90
2019-02-10T07:28:02.108Z,6.00
2019-02-10T07:30:53.460Z,9.73
2019-02-10T07:33:58.539Z,5.43
2019-02-10T07:36:33.003Z,7.43
2019-02-10T07:39:10.555Z,7.57
2019-02-10T07:41:57.343Z,8.93
2019-02-10T07:45:02.219Z,8.43
2019-02-10T07:47:42.662Z,8.43
2019-02-10T07:50:17.298Z,13.23
2019-02-10T07:52:54.630Z,5.40
2019-02-10T07:55:44.198Z,7.93
2019-02-10T07:58:33.733Z,6.27
2019-02-10T08:01:22.160Z,7.43
2019-02-10T08:04:13.582Z,7.60
2019-02-10T08:06:45.253Z,7.73
2019-02-10T08:09:34.615Z,8.10
2019-02-10T08:12:08.983Z,9.07
2019-02-10T08:14:43.356Z,11.20
2019-02-10T08:17:29.737Z,8.80
2019-02-10T08:20:19.185Z,11.17
2019-02-10T08:23:08.919Z,11.93
2019-02-10T08:26:00.904Z,14.80
2019-02-10T08:28:41.202Z,9.47
2019-02-10T08:31:30.982Z,10.63
2019-02-10T08:34:16.997Z,12.10
2019-02-10T08:36:51.707Z,11.70
2019-02-10T08:39:25.907Z,25.47
2019-02-10T08:42:06.097Z,11.60
2019-02-10T08:44:49.619Z,8.50
2019-02-10T08:47:39.150Z,8.53
2019-02-10T08:50:25.563Z,5.77
2019-02-10T08:53:06.173Z,7.07
2019-02-10T08:55:34.990Z,6.53
2019-02-10T08:58:03.693Z,6.37
2019-02-10T09:00:32.433Z,5.57
2019-02-10T09:03:01.071Z,5.97
2019-02-10T09:05:29.811Z,7.10
2019-02-10T09:07:58.359Z,4.60
2019-02-10T09:10:27.100Z,7.77
2019-02-10T09:12:55.800Z,6.77
2019-02-10T09:15:24.584Z,6.80
2019-02-10T09:17:53.226Z,5.27
2019-02-10T09:20:21.935Z,12.93
2019-02-10T09:22:50.675Z,9.10
2019-02-10T09:25:19.301Z,8.83
2019-02-10T09:27:47.885Z,10.03
2019-02-10T09:30:16.586Z,5.00
2019-02-10T09:32:45.255Z,6.97
2019-02-10T09:35:14.289Z,10.37
2019-02-10T09:37:42.999Z,5.53
2019-02-10T09:40:12.741Z,5.80
2019-02-10T09:42:41.442Z,5.47
2019-02-10T09:45:12.383Z,4.07
2019-02-10T09:47:41.077Z,3.00
2019-02-10T09:50:18.339Z,3.23
2019-02-10T09:52:46.971Z,4.90
2019-02-10T09:55:15.664Z,3.43
2019-02-10T09:57:44.407Z,5.20
2019-02-10T10:00:14.502Z,3.97
2019-02-10T10:02:43.237Z,3.77
2019-02-10T10:05:13.869Z,3.07
2019-02-10T10:07:42.595Z,4.07
2019-02-10T10:10:15.816Z,3.23
2019-02-10T10:12:44.525Z,2.30
2019-02-10T10:15:15.675Z,2.30
2019-02-10T10:17:44.395Z,4.67
2019-02-10T10:20:18.218Z,4.03
2019-02-10T10:22:46.946Z,4.03
2019-02-10T10:25:15.687Z,3.83
2019-02-10T10:27:44.966Z,4.73
2019-02-10T10:30:19.928Z,2.80
2019-02-10T10:32:48.516Z,5.40
2019-02-10T10:35:17.187Z,3.43
2019-02-10T10:37:45.857Z,3.00
2019-02-10T10:40:14.562Z,3.53
2019-02-10T10:42:43.313Z,4.27
2019-02-10T10:45:14.174Z,4.37
2019-02-10T10:47:42.878Z,3.53
2019-02-10T10:50:15.366Z,3.57
2019-02-10T10:52:44.104Z,2.73
2019-02-10T10:55:13.861Z,3.70
2019-02-10T10:57:42.569Z,3.60
2019-02-10T11:00:15.341Z,4.47
2019-02-10T11:02:44.059Z,3.57
2019-02-10T11:05:12.785Z,4.03
2019-02-10T11:07:41.693Z,5.03
2019-02-10T11:10:11.998Z,7.53
2019-02-10T11:12:40.863Z,4.60
2019-02-10T11:15:15.105Z,5.57
2019-02-10T11:17:43.850Z,5.07
2019-02-10T11:20:12.859Z,5.07
2019-02-10T11:22:41.502Z,4.37
2019-02-10T11:25:11.628Z,2.77
2019-02-10T11:27:40.324Z,2.53
2019-02-10T11:30:15.742Z,3.50
2019-02-10T11:32:45.193Z,4.03
2019-02-10T11:35:15.119Z,5.10
2019-02-10T11:37:47.332Z,5.07
2019-02-10T11:40:16.590Z,4.13
2019-02-10T11:42:46.364Z,3.63
2019-02-10T11:45:16.253Z,7.27
2019-02-10T11:47:45.468Z,4.00
2019-02-10T11:50:17.481Z,3.63
2019-02-10T11:52:47.144Z,2.50
2019-02-10T11:55:18.194Z,3.50
2019-02-10T11:57:49.480Z,4.40
2019-02-10T12:00:19.309Z,3.23
2019-02-10T12:02:48.200Z,6.63
2019-02-10T12:05:17.094Z,3.93
2019-02-10T12:07:46.924Z,5.90
2019-02-10T12:10:15.713Z,3.90
2019-02-10T12:12:45.544Z,5.97
2019-02-10T12:15:16.325Z,4.07
2019-02-10T12:17:46.534Z,6.87
2019-02-10T12:20:16.891Z,4.30
2019-02-10T12:22:50.207Z,4.33
2019-02-10T12:25:17.435Z,4.87
2019-02-10T12:27:49.168Z,5.03
2019-02-10T12:30:18.185Z,3.40
2019-02-10T12:32:48.342Z,6.03
2019-02-10T12:35:17.171Z,5.83
2019-02-10T12:37:47.795Z,4.23
2019-02-10T12:40:19.231Z,5.33
2019-02-10T12:42:49.877Z,4.57
2019-02-10T12:45:19.358Z,6.53
2019-02-10T12:47:50.920Z,6.87
2019-02-10T12:50:20.558Z,4.53
2019-02-10T12:52:49.426Z,4.60
2019-02-10T12:55:18.726Z,9.70
2019-02-10T12:57:50.088Z,14.63
2019-02-10T13:00:20.014Z,6.43
2019-02-10T13:02:49.903Z,5.43
2019-02-10T13:05:18.719Z,4.40
2019-02-10T13:07:47.608Z,7.87
2019-02-10T13:10:18.301Z,7.03
2019-02-10T13:12:47.435Z,14.47
2019-02-10T13:15:24.156Z,13.70
2019-02-10T13:17:54.657Z,10.43
2019-02-10T13:20:23.510Z,6.93
2019-02-10T13:22:52.225Z,7.63
2019-02-10T13:25:21.219Z,7.30
2019-02-10T13:27:49.865Z,4.47
2019-02-10T13:30:24.090Z,7.90
2019-02-10T13:32:53.745Z,8.77
2019-02-10T13:35:25.769Z,7.30
2019-02-10T13:37:57.145Z,7.17
2019-02-10T13:40:26.901Z,10.70
2019-02-10T13:42:55.613Z,6.03
2019-02-10T13:45:24.430Z,8.47
2019-02-10T13:47:53.068Z,5.80
2019-02-10T13:50:21.815Z,5.93
2019-02-10T13:52:50.416Z,5.77
2019-02-10T13:55:19.736Z,8.57
2019-02-10T13:57:48.420Z,7.60
2019-02-10T14:00:22.817Z,4.80
2019-02-10T14:02:51.970Z,6.70
2019-02-10T14:05:21.204Z,6.47
2019-02-10T14:07:51.195Z,5.87
2019-02-10T14:10:25.388Z,4.47
2019-02-10T14:12:50.523Z,5.17
2019-02-10T14:15:20.310Z,3.20
2019-02-10T14:17:49.279Z,4.00
2019-02-10T14:20:20.100Z,3.63
2019-02-10T14:22:49.434Z,3.67
2019-02-10T14:25:18.127Z,3.77
2019-02-10T14:27:47.667Z,4.30
2019-02-10T14:30:25.845Z,3.60
2019-02-10T14:32:54.678Z,3.20
2019-02-10T14:35:24.075Z,3.93
2019-02-10T14:37:54.524Z,3.93
2019-02-10T14:40:23.300Z,3.33
2019-02-10T14:42:52.242Z,4.00
2019-02-10T14:45:20.997Z,3.10
2019-02-10T14:47:49.742Z,3.13
2019-02-10T14:50:19.177Z,2.67
2019-02-10T14:52:48.267Z,3.60
2019-02-10T14:55:18.789Z,3.50
2019-02-10T14:57:47.544Z,3.33
2019-02-10T15:00:17.123Z,4.30
2019-02-10T15:02:45.850Z,3.57
2019-02-10T15:05:14.625Z,3.87
2019-02-10T15:07:44.732Z,4.77
2019-02-10T15:10:21.734Z,5.17
2019-02-10T15:12:50.664Z,3.97
2019-02-10T15:15:19.778Z,4.43
2019-02-10T15:17:48.341Z,4.30
2019-02-10T15:20:17.092Z,3.00
2019-02-10T15:22:46.899Z,2.87
2019-02-10T15:25:15.752Z,4.67
2019-02-10T15:27:45.504Z,5.63
2019-02-10T15:30:18.018Z,3.07
2019-02-10T15:32:46.657Z,5.37
2019-02-10T15:35:15.642Z,5.23
2019-02-10T15:37:44.195Z,4.90
2019-02-10T15:40:13.516Z,8.83
2019-02-10T15:42:42.508Z,6.23
2019-02-10T15:45:13.200Z,5.17
2019-02-10T15:47:42.100Z,6.17
2019-02-10T15:50:13.753Z,8.30
2019-02-10T15:52:42.369Z,6.83
2019-02-10T15:55:14.396Z,3.67
2019-02-10T15:57:42.951Z,3.30
2019-02-10T16:00:23.799Z,3.90
2019-02-10T16:02:52.390Z,3.93
2019-02-10T16:05:21.084Z,2.90
2019-02-10T16:07:49.758Z,2.53
2019-02-10T16:10:18.499Z,2.40
2019-02-10T16:12:47.249Z,3.63
2019-02-10T16:15:15.910Z,2.60
2019-02-10T16:17:44.470Z,2.13
2019-02-10T16:20:14.889Z,2.53
2019-02-10T16:22:43.594Z,2.07
2019-02-10T16:25:12.365Z,2.73
2019-02-10T16:27:40.983Z,1.67
2019-02-10T16:30:15.058Z,2.10
2019-02-10T16:32:49.867Z,1.83
2019-02-10T16:35:15.089Z,1.10
2019-02-10T16:37:43.954Z,1.73
2019-02-10T16:40:33.423Z,2.93
2019-02-10T16:43:02.139Z,2.10
2019-02-10T16:45:30.759Z,0.77
2019-02-10T16:47:59.369Z,1.57
2019-02-10T16:50:28.328Z,3.33
2019-02-10T16:52:56.943Z,1.63
2019-02-10T16:55:25.557Z,2.53
2019-02-10T16:57:54.593Z,1.23
2019-02-10T17:00:23.469Z,1.07
2019-02-10T17:02:52.120Z,2.73
2019-02-10T17:05:20.821Z,1.97
2019-02-10T17:07:49.462Z,1.10
2019-02-10T17:10:22.073Z,1.87
2019-02-10T17:12:50.718Z,0.70
2019-02-10T17:15:19.429Z,0.90
2019-02-10T17:17:48.009Z,0.47
2019-02-10T17:20:16.805Z,1.20
2019-02-10T17:22:45.644Z,0.93
2019-02-10T17:25:29.041Z,1.07
2019-02-10T17:27:57.714Z,2.73
2019-02-10T17:30:26.397Z,0.73
2019-02-10T17:32:55.403Z,1.07
2019-02-10T17:35:24.016Z,1.67
2019-02-10T17:37:53.470Z,2.93
2019-02-10T17:40:40.602Z,0.70
2019-02-10T17:43:10.131Z,1.20
2019-02-10T17:45:38.857Z,1.77
2019-02-10T17:48:07.687Z,0.37
2019-02-10T17:50:36.242Z,2.93
2019-02-10T17:53:04.893Z,0.83
2019-02-10T17:55:35.091Z,3.90
2019-02-10T17:58:03.826Z,1.27
2019-02-10T18:00:34.153Z,1.43
2019-02-10T18:03:02.699Z,0.83
2019-02-10T18:05:31.291Z,1.63
2019-02-10T18:08:02.314Z,1.80
2019-02-10T18:10:30.944Z,1.00
2019-02-10T18:12:59.564Z,0.77
2019-02-10T18:15:38.663Z,0.67
2019-02-10T18:18:09.113Z,2.57
2019-02-10T18:20:54.113Z,0.53
2019-02-10T18:23:24.309Z,1.50
2019-02-10T18:26:03.306Z,1.33
2019-02-10T18:28:39.262Z,3.47
2019-02-10T18:31:18.552Z,1.77
2019-02-10T18:33:49.305Z,2.83
2019-02-10T18:36:25.249Z,2.47
2019-02-10T18:39:04.097Z,2.93
2019-02-10T18:41:39.259Z,3.20
2019-02-10T18:44:10.330Z,1.43
2019-02-10T18:46:40.735Z,2.70
2019-02-10T18:49:27.428Z,1.07
2019-02-10T18:52:00.466Z,1.00
2019-02-10T18:54:33.160Z,1.07
2019-02-10T18:57:15.304Z,1.47
2019-02-10T19:00:04.233Z,2.03
2019-02-10T19:02:50.908Z,1.47
2019-02-10T19:05:21.124Z,2.63
2019-02-10T19:08:00.480Z,3.70
2019-02-10T19:10:38.930Z,0.77
2019-02-10T19:13:18.532Z,2.30
2019-02-10T19:15:58.113Z,1.67
2019-02-10T19:18:44.972Z,1.53
2019-02-10T19:23:57.362Z,1.50
2019-02-10T19:26:30.481Z,0.63
2019-02-10T19:29:07.162Z,2.03
2019-02-10T19:31:41.874Z,2.90
2019-02-10T19:34:15.363Z,6.73
2019-02-10T19:36:54.574Z,2.17
2019-02-10T19:39:24.894Z,2.17
2019-02-10T19:41:55.829Z,2.00
2019-02-10T19:44:29.177Z,1.60
2019-02-10T19:47:05.681Z,1.60
2019-02-10T19:49:42.327Z,2.43
2019-02-10T19:52:27.714Z,2.13
2019-02-10T19:54:58.073Z,7.13
2019-02-10T19:57:39.408Z,4.57
2019-02-10T20:00:15.828Z,2.77
2019-02-10T20:02:48.921Z,4.23
2019-02-10T20:05:19.179Z,4.57
2019-02-10T20:07:53.826Z,3.33
2019-02-10T20:10:33.566Z,4.73
2019-02-10T20:13:10.142Z,1.27
2019-02-10T20:15:58.590Z,2.27
2019-02-10T20:18:28.857Z,3.53
2019-02-10T20:21:07.821Z,2.53
2019-02-10T20:23:56.099Z,1.50
2019-02-10T20:26:44.149Z,3.07
2019-02-10T20:29:16.995Z,1.43
2019-02-10T20:31:53.650Z,1.83
2019-02-10T20:34:23.889Z,0.90
2019-02-10T20:37:08.837Z,1.23
2019-02-10T20:39:45.054Z,1.50
2019-02-10T20:42:24.077Z,2.03
2019-02-10T20:44:56.971Z,2.27
2019-02-10T20:47:32.888Z,4.97
2019-02-10T20:50:05.914Z,1.03
2019-02-10T20:52:46.208Z,1.73
2019-02-10T20:55:13.248Z,1.60
2019-02-10T20:57:59.980Z,1.67
2019-02-10T21:00:30.308Z,1.37
2019-02-10T21:03:06.445Z,1.73
2019-02-10T21:05:55.417Z,1.60
2019-02-10T21:08:34.422Z,4.00
2019-02-10T21:11:22.934Z,3.93
2019-02-10T21:13:55.706Z,2.03
2019-02-10T21:16:25.677Z,1.37
2019-02-10T21:19:11.266Z,1.57
2019-02-10T21:21:53.385Z,0.90
2019-02-10T21:24:23.657Z,4.20
2019-02-10T21:26:56.377Z,2.27
2019-02-10T21:29:32.397Z,0.57
2019-02-10T21:32:18.724Z,1.73
2019-02-10T21:34:51.693Z,1.63
2019-02-10T21:37:28.117Z,1.90
2019-02-10T21:40:01.343Z,1.10
2019-02-10T21:42:34.386Z,0.60
2019-02-10T21:45:04.877Z,1.73
2019-02-10T21:47:35.402Z,2.03
2019-02-10T21:50:05.493Z,2.07
2019-02-10T21:52:34.072Z,1.47
2019-02-10T21:55:03.158Z,2.13
2019-02-10T21:57:31.719Z,1.83
2019-02-10T22:00:00.344Z,1.03
2019-02-10T22:02:28.841Z,1.80
2019-02-10T22:04:57.424Z,1.77
2019-02-10T22:07:25.978Z,0.93
2019-02-10T22:09:54.745Z,0.83
2019-02-10T22:12:23.298Z,2.40
2019-02-10T22:14:51.879Z,1.93
2019-02-10T22:17:20.427Z,2.00
2019-02-10T22:19:49.241Z,3.40
2019-02-10T22:22:17.952Z,1.03
2019-02-10T22:24:46.521Z,1.80
2019-02-10T22:27:15.072Z,1.60
2019-02-10T22:29:43.731Z,1.47
2019-02-10T22:32:13.057Z,1.63
2019-02-10T22:34:41.601Z,1.53
2019-02-10T22:37:12.002Z,0.53
2019-02-10T22:39:40.564Z,0.93
2019-02-10T22:42:09.280Z,1.30
2019-02-10T22:44:40.461Z,1.17
2019-02-10T22:47:09.251Z,2.10
2019-02-10T22:49:38.301Z,0.40
2019-02-10T22:52:06.957Z,1.13
2019-02-10T22:54:36.365Z,3.97
2019-02-10T22:57:05.268Z,1.40
2019-02-10T22:59:34.487Z,0.50
2019-02-10T23:02:04.743Z,1.23
2019-02-10T23:04:33.794Z,0.73
2019-02-10T23:07:02.651Z,3.37
2019-02-10T23:09:31.385Z,3.07
2019-02-10T23:11:59.964Z,0.80
2019-02-10T23:14:30.156Z,1.43
2019-02-10T23:16:58.718Z,1.07
2019-02-10T23:19:27.409Z,3.27
2019-02-10T23:21:56.419Z,1.70
2019-02-10T23:24:25.037Z,1.90
2019-02-10T23:26:54.136Z,0.50
2019-02-10T23:29:22.690Z,0.87
2019-02-10T23:31:51.236Z,2.70
2019-02-10T23:34:19.824Z,0.57
2019-02-10T23:36:48.370Z,1.00
2019-02-10T23:39:16.944Z,0.77
2019-02-10T23:41:45.506Z,0.37
2019-02-10T23:44:14.090Z,1.93
2019-02-10T23:46:42.646Z,0.43
2019-02-10T23:49:11.297Z,1.43
2019-02-10T23:51:39.862Z,1.27
2019-02-10T23:54:08.440Z,1.13
2019-02-10T23:56:36.993Z,2.50
2019-02-10T23:59:05.573Z,1.00
